sensor_id;sensor_type;location;lat;lon;timestamp;P1;durP1;ratioP1;P2;durP2;ratioP2
8791;SDS011;4432;50.890;4.744;2023-05-09T00:00:42;5.40;;;3.90;;
8791;SDS011;4432;50.890;4.744;2023-05-09T00:03:08;7.03;;;4.40;;
8791;SDS011;4432;50.890;4.744;2023-05-09T00:05:34;5.70;;;4.43;;
8791;SDS011;4432;50.890;4.744;2023-05-09T00:07:59;5.77;;;4.47;;
8791;SDS011;4432;50.890;4.744;2023-05-09T00:10:26;4.97;;;4.47;;
8791;SDS011;4432;50.890;4.744;2023-05-09T00:12:52;10.23;;;4.40;;
8791;SDS011;4432;50.890;4.744;2023-05-09T00:15:17;6.83;;;4.47;;
8791;SDS011;4432;50.890;4.744;2023-05-09T00:17:43;5.37;;;4.07;;
8791;SDS011;4432;50.890;4.744;2023-05-09T00:20:10;6.00;;;4.00;;
8791;SDS011;4432;50.890;4.744;2023-05-09T00:22:40;6.03;;;4.10;;
8791;SDS011;4432;50.890;4.744;2023-05-09T00:25:09;7.33;;;4.13;;
8791;SDS011;4432;50.890;4.744;2023-05-09T00:27:35;3.80;;;3.37;;
8791;SDS011;4432;50.890;4.744;2023-05-09T00:30:02;6.13;;;4.07;;
8791;SDS011;4432;50.890;4.744;2023-05-09T00:32:29;5.63;;;4.17;;
8791;SDS011;4432;50.890;4.744;2023-05-09T00:34:56;9.43;;;3.83;;
8791;SDS011;4432;50.890;4.744;2023-05-09T00:37:22;8.33;;;3.50;;
8791;SDS011;4432;50.890;4.744;2023-05-09T00:39:48;6.17;;;3.90;;
8791;SDS011;4432;50.890;4.744;2023-05-09T00:42:13;4.80;;;3.90;;
8791;SDS011;4432;50.890;4.744;2023-05-09T00:44:39;5.60;;;4.03;;
8791;SDS011;4432;50.890;4.744;2023-05-09T00:47:05;7.10;;;4.00;;
8791;SDS011;4432;50.890;4.744;2023-05-09T00:49:31;4.73;;;3.73;;
8791;SDS011;4432;50.890;4.744;2023-05-09T00:51:57;5.87;;;3.80;;
8791;SDS011;4432;50.890;4.744;2023-05-09T00:54:23;5.47;;;3.73;;
8791;SDS011;4432;50.890;4.744;2023-05-09T00:56:49;7.00;;;3.80;;
8791;SDS011;4432;50.890;4.744;2023-05-09T00:59:15;5.73;;;3.37;;
8791;SDS011;4432;50.890;4.744;2023-05-09T01:01:42;4.33;;;3.40;;
8791;SDS011;4432;50.890;4.744;2023-05-09T01:04:08;4.77;;;3.67;;
8791;SDS011;4432;50.890;4.744;2023-05-09T01:09:37;5.43;;;3.20;;
8791;SDS011;4432;50.890;4.744;2023-05-09T01:12:22;7.37;;;3.57;;
8791;SDS011;4432;50.890;4.744;2023-05-09T01:21:19;4.70;;;3.27;;
8791;SDS011;4432;50.890;4.744;2023-05-09T01:31:37;3.87;;;3.47;;
8791;SDS011;4432;50.890;4.744;2023-05-09T01:34:06;3.90;;;3.47;;
8791;SDS011;4432;50.890;4.744;2023-05-09T01:36:34;4.57;;;3.73;;
8791;SDS011;4432;50.890;4.744;2023-05-09T01:39:03;4.97;;;4.00;;
8791;SDS011;4432;50.890;4.744;2023-05-09T01:41:30;8.20;;;4.23;;
8791;SDS011;4432;50.890;4.744;2023-05-09T01:44:02;6.40;;;4.50;;
8791;SDS011;4432;50.890;4.744;2023-05-09T01:46:31;5.30;;;3.83;;
8791;SDS011;4432;50.890;4.744;2023-05-09T01:48:57;6.20;;;4.30;;
8791;SDS011;4432;50.890;4.744;2023-05-09T01:51:26;4.90;;;3.83;;
8791;SDS011;4432;50.890;4.744;2023-05-09T01:53:53;3.60;;;3.30;;
8791;SDS011;4432;50.890;4.744;2023-05-09T01:56:22;4.90;;;3.70;;
8791;SDS011;4432;50.890;4.744;2023-05-09T01:58:49;4.77;;;4.30;;
8791;SDS011;4432;50.890;4.744;2023-05-09T02:01:16;6.03;;;4.13;;
8791;SDS011;4432;50.890;4.744;2023-05-09T02:03:44;4.23;;;3.73;;
8791;SDS011;4432;50.890;4.744;2023-05-09T02:06:11;4.93;;;4.10;;
8791;SDS011;4432;50.890;4.744;2023-05-09T02:08:39;6.23;;;4.90;;
8791;SDS011;4432;50.890;4.744;2023-05-09T02:11:06;5.70;;;4.10;;
8791;SDS011;4432;50.890;4.744;2023-05-09T02:13:32;6.83;;;4.30;;
8791;SDS011;4432;50.890;4.744;2023-05-09T02:15:58;6.23;;;3.70;;
8791;SDS011;4432;50.890;4.744;2023-05-09T02:18:25;7.33;;;3.67;;
8791;SDS011;4432;50.890;4.744;2023-05-09T02:20:51;6.03;;;3.77;;
8791;SDS011;4432;50.890;4.744;2023-05-09T02:23:17;8.23;;;3.50;;
8791;SDS011;4432;50.890;4.744;2023-05-09T02:25:44;5.80;;;4.27;;
8791;SDS011;4432;50.890;4.744;2023-05-09T02:28:10;5.20;;;4.20;;
8791;SDS011;4432;50.890;4.744;2023-05-09T02:30:38;5.40;;;4.30;;
8791;SDS011;4432;50.890;4.744;2023-05-09T02:33:07;5.37;;;4.63;;
8791;SDS011;4432;50.890;4.744;2023-05-09T02:35:35;6.03;;;4.20;;
8791;SDS011;4432;50.890;4.744;2023-05-09T02:38:02;4.93;;;4.23;;
8791;SDS011;4432;50.890;4.744;2023-05-09T02:40:28;5.57;;;3.93;;
8791;SDS011;4432;50.890;4.744;2023-05-09T02:42:54;5.13;;;3.93;;
8791;SDS011;4432;50.890;4.744;2023-05-09T02:45:21;6.83;;;4.07;;
8791;SDS011;4432;50.890;4.744;2023-05-09T02:47:47;7.40;;;4.10;;
8791;SDS011;4432;50.890;4.744;2023-05-09T02:50:12;8.40;;;4.00;;
8791;SDS011;4432;50.890;4.744;2023-05-09T02:52:38;5.47;;;4.27;;
8791;SDS011;4432;50.890;4.744;2023-05-09T02:55:05;4.77;;;4.23;;
8791;SDS011;4432;50.890;4.744;2023-05-09T02:57:31;6.97;;;4.20;;
8791;SDS011;4432;50.890;4.744;2023-05-09T02:59:57;5.43;;;3.93;;
8791;SDS011;4432;50.890;4.744;2023-05-09T03:02:24;5.80;;;3.93;;
8791;SDS011;4432;50.890;4.744;2023-05-09T03:04:50;5.97;;;4.13;;
8791;SDS011;4432;50.890;4.744;2023-05-09T03:07:15;4.20;;;3.80;;
8791;SDS011;4432;50.890;4.744;2023-05-09T03:09:41;5.53;;;3.93;;
8791;SDS011;4432;50.890;4.744;2023-05-09T03:12:07;7.27;;;3.87;;
8791;SDS011;4432;50.890;4.744;2023-05-09T03:14:33;5.30;;;4.20;;
8791;SDS011;4432;50.890;4.744;2023-05-09T03:16:58;7.67;;;4.40;;
8791;SDS011;4432;50.890;4.744;2023-05-09T03:19:24;7.37;;;4.50;;
8791;SDS011;4432;50.890;4.744;2023-05-09T03:21:50;5.53;;;4.43;;
8791;SDS011;4432;50.890;4.744;2023-05-09T03:24:16;6.30;;;4.30;;
8791;SDS011;4432;50.890;4.744;2023-05-09T03:26:41;6.00;;;4.10;;
8791;SDS011;4432;50.890;4.744;2023-05-09T03:29:07;5.90;;;4.10;;
8791;SDS011;4432;50.890;4.744;2023-05-09T03:31:33;5.37;;;3.87;;
8791;SDS011;4432;50.890;4.744;2023-05-09T03:33:59;5.10;;;4.10;;
8791;SDS011;4432;50.890;4.744;2023-05-09T03:36:24;5.63;;;4.57;;
8791;SDS011;4432;50.890;4.744;2023-05-09T03:38:50;5.53;;;4.37;;
8791;SDS011;4432;50.890;4.744;2023-05-09T03:41:16;5.50;;;4.20;;
8791;SDS011;4432;50.890;4.744;2023-05-09T03:43:42;5.27;;;4.50;;
8791;SDS011;4432;50.890;4.744;2023-05-09T03:46:08;5.53;;;4.13;;
8791;SDS011;4432;50.890;4.744;2023-05-09T03:48:34;6.73;;;4.57;;
8791;SDS011;4432;50.890;4.744;2023-05-09T03:51:00;5.17;;;4.17;;
8791;SDS011;4432;50.890;4.744;2023-05-09T03:53:27;6.77;;;4.47;;
8791;SDS011;4432;50.890;4.744;2023-05-09T03:55:52;5.57;;;4.20;;
8791;SDS011;4432;50.890;4.744;2023-05-09T03:58:18;10.67;;;4.33;;
8791;SDS011;4432;50.890;4.744;2023-05-09T04:00:44;7.33;;;5.00;;
8791;SDS011;4432;50.890;4.744;2023-05-09T04:03:10;9.33;;;4.40;;
8791;SDS011;4432;50.890;4.744;2023-05-09T04:05:36;6.53;;;4.70;;
8791;SDS011;4432;50.890;4.744;2023-05-09T04:08:02;5.47;;;4.40;;
8791;SDS011;4432;50.890;4.744;2023-05-09T04:10:29;10.00;;;4.60;;
8791;SDS011;4432;50.890;4.744;2023-05-09T04:12:55;6.33;;;4.20;;
8791;SDS011;4432;50.890;4.744;2023-05-09T04:15:21;5.00;;;4.50;;
8791;SDS011;4432;50.890;4.744;2023-05-09T04:17:47;4.60;;;4.13;;
8791;SDS011;4432;50.890;4.744;2023-05-09T04:20:13;4.60;;;4.10;;
8791;SDS011;4432;50.890;4.744;2023-05-09T04:22:39;5.17;;;4.53;;
8791;SDS011;4432;50.890;4.744;2023-05-09T04:25:05;6.80;;;4.50;;
8791;SDS011;4432;50.890;4.744;2023-05-09T04:27:31;5.83;;;4.87;;
8791;SDS011;4432;50.890;4.744;2023-05-09T04:29:57;6.93;;;4.27;;
8791;SDS011;4432;50.890;4.744;2023-05-09T04:32:22;9.07;;;4.23;;
8791;SDS011;4432;50.890;4.744;2023-05-09T04:34:48;6.50;;;4.43;;
8791;SDS011;4432;50.890;4.744;2023-05-09T04:37:14;6.30;;;4.30;;
8791;SDS011;4432;50.890;4.744;2023-05-09T04:39:40;6.27;;;4.03;;
8791;SDS011;4432;50.890;4.744;2023-05-09T04:42:05;5.00;;;4.07;;
8791;SDS011;4432;50.890;4.744;2023-05-09T04:44:31;7.53;;;4.63;;
8791;SDS011;4432;50.890;4.744;2023-05-09T04:46:57;5.73;;;4.33;;
8791;SDS011;4432;50.890;4.744;2023-05-09T04:49:23;8.17;;;4.40;;
8791;SDS011;4432;50.890;4.744;2023-05-09T04:51:49;6.60;;;4.47;;
8791;SDS011;4432;50.890;4.744;2023-05-09T04:54:15;5.20;;;4.47;;
8791;SDS011;4432;50.890;4.744;2023-05-09T04:56:41;5.63;;;4.53;;
8791;SDS011;4432;50.890;4.744;2023-05-09T04:59:07;4.87;;;4.37;;
8791;SDS011;4432;50.890;4.744;2023-05-09T05:01:33;7.97;;;4.67;;
8791;SDS011;4432;50.890;4.744;2023-05-09T05:03:58;8.00;;;4.13;;
8791;SDS011;4432;50.890;4.744;2023-05-09T05:06:24;10.67;;;5.03;;
8791;SDS011;4432;50.890;4.744;2023-05-09T05:08:50;8.10;;;4.70;;
8791;SDS011;4432;50.890;4.744;2023-05-09T05:11:16;5.10;;;3.90;;
8791;SDS011;4432;50.890;4.744;2023-05-09T05:13:45;7.83;;;4.33;;
8791;SDS011;4432;50.890;4.744;2023-05-09T05:16:11;6.90;;;4.00;;
8791;SDS011;4432;50.890;4.744;2023-05-09T05:18:37;4.93;;;4.27;;
8791;SDS011;4432;50.890;4.744;2023-05-09T05:21:02;5.17;;;4.00;;
8791;SDS011;4432;50.890;4.744;2023-05-09T05:23:28;7.33;;;4.17;;
8791;SDS011;4432;50.890;4.744;2023-05-09T05:25:54;5.10;;;4.27;;
8791;SDS011;4432;50.890;4.744;2023-05-09T05:28:19;5.03;;;3.93;;
8791;SDS011;4432;50.890;4.744;2023-05-09T05:30:45;5.83;;;4.27;;
8791;SDS011;4432;50.890;4.744;2023-05-09T05:33:11;4.43;;;3.80;;
8791;SDS011;4432;50.890;4.744;2023-05-09T05:35:36;6.90;;;3.60;;
8791;SDS011;4432;50.890;4.744;2023-05-09T05:38:02;5.10;;;4.40;;
8791;SDS011;4432;50.890;4.744;2023-05-09T05:40:28;4.87;;;3.90;;
8791;SDS011;4432;50.890;4.744;2023-05-09T05:42:54;6.50;;;3.73;;
8791;SDS011;4432;50.890;4.744;2023-05-09T05:45:19;5.97;;;4.17;;
8791;SDS011;4432;50.890;4.744;2023-05-09T05:47:45;5.73;;;4.30;;
8791;SDS011;4432;50.890;4.744;2023-05-09T05:50:11;6.53;;;4.00;;
8791;SDS011;4432;50.890;4.744;2023-05-09T05:52:37;6.63;;;4.40;;
8791;SDS011;4432;50.890;4.744;2023-05-09T05:55:04;6.27;;;4.10;;
8791;SDS011;4432;50.890;4.744;2023-05-09T05:57:30;5.37;;;4.30;;
8791;SDS011;4432;50.890;4.744;2023-05-09T05:59:56;6.17;;;4.13;;
8791;SDS011;4432;50.890;4.744;2023-05-09T06:02:21;6.27;;;4.73;;
8791;SDS011;4432;50.890;4.744;2023-05-09T06:04:47;4.97;;;4.47;;
8791;SDS011;4432;50.890;4.744;2023-05-09T06:07:13;5.20;;;4.27;;
8791;SDS011;4432;50.890;4.744;2023-05-09T06:09:39;7.53;;;4.70;;
8791;SDS011;4432;50.890;4.744;2023-05-09T06:12:05;6.93;;;4.87;;
8791;SDS011;4432;50.890;4.744;2023-05-09T06:14:31;4.73;;;4.03;;
8791;SDS011;4432;50.890;4.744;2023-05-09T06:16:57;9.37;;;4.73;;
8791;SDS011;4432;50.890;4.744;2023-05-09T06:19:23;6.47;;;4.53;;
8791;SDS011;4432;50.890;4.744;2023-05-09T06:21:49;8.63;;;4.83;;
8791;SDS011;4432;50.890;4.744;2023-05-09T06:24:15;6.10;;;4.57;;
8791;SDS011;4432;50.890;4.744;2023-05-09T06:26:41;8.20;;;4.67;;
8791;SDS011;4432;50.890;4.744;2023-05-09T06:29:06;7.33;;;4.83;;
8791;SDS011;4432;50.890;4.744;2023-05-09T06:31:33;7.60;;;5.10;;
8791;SDS011;4432;50.890;4.744;2023-05-09T06:34:05;6.93;;;4.87;;
8791;SDS011;4432;50.890;4.744;2023-05-09T06:36:32;6.40;;;5.13;;
8791;SDS011;4432;50.890;4.744;2023-05-09T06:38:58;9.17;;;4.93;;
8791;SDS011;4432;50.890;4.744;2023-05-09T06:41:24;9.53;;;4.87;;
8791;SDS011;4432;50.890;4.744;2023-05-09T06:43:50;6.97;;;5.43;;
8791;SDS011;4432;50.890;4.744;2023-05-09T06:46:16;7.10;;;4.97;;
8791;SDS011;4432;50.890;4.744;2023-05-09T06:48:42;6.60;;;5.43;;
8791;SDS011;4432;50.890;4.744;2023-05-09T06:51:08;9.13;;;5.27;;
8791;SDS011;4432;50.890;4.744;2023-05-09T06:53:35;6.07;;;5.03;;
8791;SDS011;4432;50.890;4.744;2023-05-09T06:56:01;6.20;;;5.57;;
8791;SDS011;4432;50.890;4.744;2023-05-09T06:58:27;8.37;;;5.07;;
8791;SDS011;4432;50.890;4.744;2023-05-09T07:00:53;6.53;;;4.83;;
8791;SDS011;4432;50.890;4.744;2023-05-09T07:03:20;6.20;;;4.87;;
8791;SDS011;4432;50.890;4.744;2023-05-09T07:05:46;5.47;;;4.53;;
8791;SDS011;4432;50.890;4.744;2023-05-09T07:08:11;6.10;;;4.63;;
8791;SDS011;4432;50.890;4.744;2023-05-09T07:10:37;6.70;;;4.47;;
8791;SDS011;4432;50.890;4.744;2023-05-09T07:13:03;6.03;;;4.90;;
8791;SDS011;4432;50.890;4.744;2023-05-09T07:15:29;8.17;;;4.70;;
8791;SDS011;4432;50.890;4.744;2023-05-09T07:17:55;5.13;;;4.23;;
8791;SDS011;4432;50.890;4.744;2023-05-09T07:20:20;4.53;;;4.07;;
8791;SDS011;4432;50.890;4.744;2023-05-09T07:22:47;6.60;;;4.20;;
8791;SDS011;4432;50.890;4.744;2023-05-09T07:25:12;5.47;;;4.03;;
8791;SDS011;4432;50.890;4.744;2023-05-09T07:27:38;7.17;;;4.20;;
8791;SDS011;4432;50.890;4.744;2023-05-09T07:30:04;6.37;;;4.10;;
8791;SDS011;4432;50.890;4.744;2023-05-09T07:32:31;4.90;;;4.30;;
8791;SDS011;4432;50.890;4.744;2023-05-09T07:34:57;4.93;;;3.43;;
8791;SDS011;4432;50.890;4.744;2023-05-09T07:37:23;4.83;;;3.97;;
8791;SDS011;4432;50.890;4.744;2023-05-09T07:39:49;4.17;;;3.70;;
8791;SDS011;4432;50.890;4.744;2023-05-09T07:42:15;4.03;;;3.67;;
8791;SDS011;4432;50.890;4.744;2023-05-09T07:44:41;4.77;;;4.00;;
8791;SDS011;4432;50.890;4.744;2023-05-09T07:47:07;6.80;;;4.07;;
8791;SDS011;4432;50.890;4.744;2023-05-09T07:49:33;5.00;;;3.93;;
8791;SDS011;4432;50.890;4.744;2023-05-09T07:51:59;6.93;;;4.40;;
8791;SDS011;4432;50.890;4.744;2023-05-09T07:54:26;5.60;;;4.30;;
8791;SDS011;4432;50.890;4.744;2023-05-09T07:56:52;5.97;;;4.20;;
8791;SDS011;4432;50.890;4.744;2023-05-09T07:59:18;5.23;;;4.10;;
8791;SDS011;4432;50.890;4.744;2023-05-09T08:01:44;4.33;;;3.93;;
8791;SDS011;4432;50.890;4.744;2023-05-09T08:04:10;5.87;;;4.07;;
8791;SDS011;4432;50.890;4.744;2023-05-09T08:06:36;6.07;;;5.00;;
8791;SDS011;4432;50.890;4.744;2023-05-09T08:09:02;9.63;;;4.60;;
8791;SDS011;4432;50.890;4.744;2023-05-09T08:11:28;6.13;;;4.37;;
8791;SDS011;4432;50.890;4.744;2023-05-09T08:13:57;8.37;;;4.33;;
8791;SDS011;4432;50.890;4.744;2023-05-09T08:16:22;4.80;;;4.10;;
8791;SDS011;4432;50.890;4.744;2023-05-09T08:18:48;5.10;;;4.23;;
8791;SDS011;4432;50.890;4.744;2023-05-09T08:21:14;5.57;;;4.50;;
8791;SDS011;4432;50.890;4.744;2023-05-09T08:23:40;6.37;;;4.10;;
8791;SDS011;4432;50.890;4.744;2023-05-09T08:26:05;4.80;;;4.20;;
8791;SDS011;4432;50.890;4.744;2023-05-09T08:28:31;6.67;;;4.17;;
8791;SDS011;4432;50.890;4.744;2023-05-09T08:30:57;4.97;;;4.23;;
8791;SDS011;4432;50.890;4.744;2023-05-09T08:33:23;4.53;;;4.00;;
8791;SDS011;4432;50.890;4.744;2023-05-09T08:35:53;6.50;;;3.87;;
8791;SDS011;4432;50.890;4.744;2023-05-09T08:38:19;4.60;;;4.13;;
8791;SDS011;4432;50.890;4.744;2023-05-09T08:40:45;7.53;;;4.27;;
8791;SDS011;4432;50.890;4.744;2023-05-09T08:43:11;5.40;;;3.70;;
8791;SDS011;4432;50.890;4.744;2023-05-09T08:45:40;3.93;;;3.53;;
8791;SDS011;4432;50.890;4.744;2023-05-09T08:48:11;6.13;;;3.73;;
8791;SDS011;4432;50.890;4.744;2023-05-09T08:50:40;4.70;;;3.87;;
8791;SDS011;4432;50.890;4.744;2023-05-09T08:53:06;5.13;;;4.20;;
8791;SDS011;4432;50.890;4.744;2023-05-09T08:55:32;6.50;;;4.30;;
8791;SDS011;4432;50.890;4.744;2023-05-09T08:57:58;4.90;;;4.07;;
8791;SDS011;4432;50.890;4.744;2023-05-09T09:00:25;5.03;;;3.77;;
8791;SDS011;4432;50.890;4.744;2023-05-09T09:02:52;5.33;;;3.30;;
8791;SDS011;4432;50.890;4.744;2023-05-09T09:05:19;4.37;;;3.77;;
8791;SDS011;4432;50.890;4.744;2023-05-09T09:07:47;5.20;;;3.87;;
8791;SDS011;4432;50.890;4.744;2023-05-09T09:10:13;4.27;;;3.37;;
8791;SDS011;4432;50.890;4.744;2023-05-09T09:12:40;6.30;;;3.50;;
8791;SDS011;4432;50.890;4.744;2023-05-09T09:15:08;3.90;;;3.30;;
8791;SDS011;4432;50.890;4.744;2023-05-09T09:17:39;2.93;;;2.73;;
8791;SDS011;4432;50.890;4.744;2023-05-09T09:20:08;2.73;;;2.53;;
8791;SDS011;4432;50.890;4.744;2023-05-09T09:22:36;4.13;;;3.07;;
8791;SDS011;4432;50.890;4.744;2023-05-09T09:25:06;3.20;;;2.90;;
8791;SDS011;4432;50.890;4.744;2023-05-09T09:27:32;2.87;;;2.67;;
8791;SDS011;4432;50.890;4.744;2023-05-09T09:30:09;4.53;;;3.17;;
8791;SDS011;4432;50.890;4.744;2023-05-09T09:32:36;2.80;;;2.60;;
8791;SDS011;4432;50.890;4.744;2023-05-09T09:35:04;3.40;;;2.97;;
8791;SDS011;4432;50.890;4.744;2023-05-09T09:37:32;2.77;;;2.57;;
8791;SDS011;4432;50.890;4.744;2023-05-09T09:39:59;2.87;;;2.50;;
8791;SDS011;4432;50.890;4.744;2023-05-09T09:42:25;2.50;;;2.30;;
8791;SDS011;4432;50.890;4.744;2023-05-09T09:45:07;2.57;;;2.37;;
8791;SDS011;4432;50.890;4.744;2023-05-09T09:47:33;3.40;;;2.47;;
8791;SDS011;4432;50.890;4.744;2023-05-09T09:50:08;2.57;;;2.37;;
8791;SDS011;4432;50.890;4.744;2023-05-09T09:52:50;3.67;;;2.37;;
8791;SDS011;4432;50.890;4.744;2023-05-09T09:55:18;2.83;;;2.07;;
8791;SDS011;4432;50.890;4.744;2023-05-09T09:57:44;5.30;;;2.00;;
8791;SDS011;4432;50.890;4.744;2023-05-09T10:00:12;2.40;;;2.17;;
8791;SDS011;4432;50.890;4.744;2023-05-09T10:02:46;3.07;;;2.50;;
8791;SDS011;4432;50.890;4.744;2023-05-09T10:05:20;4.07;;;2.30;;
8791;SDS011;4432;50.890;4.744;2023-05-09T10:08:01;2.57;;;2.37;;
8791;SDS011;4432;50.890;4.744;2023-05-09T10:10:29;4.17;;;2.53;;
8791;SDS011;4432;50.890;4.744;2023-05-09T10:13:03;4.73;;;2.23;;
8791;SDS011;4432;50.890;4.744;2023-05-09T10:15:36;2.63;;;2.43;;
8791;SDS011;4432;50.890;4.744;2023-05-09T10:18:02;3.07;;;2.40;;
8791;SDS011;4432;50.890;4.744;2023-05-09T10:20:29;2.40;;;2.20;;
8791;SDS011;4432;50.890;4.744;2023-05-09T10:22:57;2.77;;;2.37;;
8791;SDS011;4432;50.890;4.744;2023-05-09T10:28:03;2.33;;;2.10;;
8791;SDS011;4432;50.890;4.744;2023-05-09T10:30:35;2.57;;;2.37;;
8791;SDS011;4432;50.890;4.744;2023-05-09T10:33:33;2.60;;;2.40;;
8791;SDS011;4432;50.890;4.744;2023-05-09T10:36:11;2.47;;;1.80;;
8791;SDS011;4432;50.890;4.744;2023-05-09T10:38:42;2.47;;;2.23;;
8791;SDS011;4432;50.890;4.744;2023-05-09T10:41:09;3.97;;;2.53;;
8791;SDS011;4432;50.890;4.744;2023-05-09T10:43:35;3.50;;;2.43;;
8791;SDS011;4432;50.890;4.744;2023-05-09T10:46:02;4.10;;;2.40;;
8791;SDS011;4432;50.890;4.744;2023-05-09T10:48:29;3.50;;;2.50;;
8791;SDS011;4432;50.890;4.744;2023-05-09T10:50:59;11.33;;;2.50;;
8791;SDS011;4432;50.890;4.744;2023-05-09T10:53:48;3.17;;;2.10;;
8791;SDS011;4432;50.890;4.744;2023-05-09T10:56:30;2.53;;;2.33;;
8791;SDS011;4432;50.890;4.744;2023-05-09T10:58:58;2.27;;;2.00;;
8791;SDS011;4432;50.890;4.744;2023-05-09T11:01:28;2.73;;;2.53;;
8791;SDS011;4432;50.890;4.744;2023-05-09T11:03:57;2.33;;;2.13;;
8791;SDS011;4432;50.890;4.744;2023-05-09T11:09:22;2.40;;;2.20;;
8791;SDS011;4432;50.890;4.744;2023-05-09T11:17:06;2.80;;;2.50;;
8791;SDS011;4432;50.890;4.744;2023-05-09T11:19:34;3.03;;;2.43;;
8791;SDS011;4432;50.890;4.744;2023-05-09T11:22:01;2.80;;;2.43;;
8791;SDS011;4432;50.890;4.744;2023-05-09T11:24:36;3.33;;;2.30;;
8791;SDS011;4432;50.890;4.744;2023-05-09T11:27:05;3.70;;;2.30;;
8791;SDS011;4432;50.890;4.744;2023-05-09T11:29:49;2.60;;;2.40;;
8791;SDS011;4432;50.890;4.744;2023-05-09T11:32:16;2.40;;;2.20;;
8791;SDS011;4432;50.890;4.744;2023-05-09T11:34:42;2.77;;;2.47;;
8791;SDS011;4432;50.890;4.744;2023-05-09T11:37:10;2.33;;;2.13;;
8791;SDS011;4432;50.890;4.744;2023-05-09T11:40:02;3.17;;;2.77;;
8791;SDS011;4432;50.890;4.744;2023-05-09T11:42:29;4.10;;;2.63;;
8791;SDS011;4432;50.890;4.744;2023-05-09T11:44:56;4.20;;;2.50;;
8791;SDS011;4432;50.890;4.744;2023-05-09T11:47:23;2.73;;;2.40;;
8791;SDS011;4432;50.890;4.744;2023-05-09T11:49:49;2.60;;;2.40;;
8791;SDS011;4432;50.890;4.744;2023-05-09T11:52:17;2.63;;;2.43;;
8791;SDS011;4432;50.890;4.744;2023-05-09T11:54:43;3.53;;;2.83;;
8791;SDS011;4432;50.890;4.744;2023-05-09T11:57:09;2.90;;;2.60;;
8791;SDS011;4432;50.890;4.744;2023-05-09T11:59:41;3.00;;;2.30;;
8791;SDS011;4432;50.890;4.744;2023-05-09T12:02:08;2.80;;;2.60;;
8791;SDS011;4432;50.890;4.744;2023-05-09T12:04:34;3.23;;;2.40;;
8791;SDS011;4432;50.890;4.744;2023-05-09T12:07:00;3.13;;;2.80;;
8791;SDS011;4432;50.890;4.744;2023-05-09T12:09:30;4.17;;;2.67;;
8791;SDS011;4432;50.890;4.744;2023-05-09T12:11:57;3.33;;;2.60;;
8791;SDS011;4432;50.890;4.744;2023-05-09T12:14:31;3.20;;;2.87;;
8791;SDS011;4432;50.890;4.744;2023-05-09T12:16:58;2.70;;;2.50;;
8791;SDS011;4432;50.890;4.744;2023-05-09T12:19:24;3.07;;;2.70;;
8791;SDS011;4432;50.890;4.744;2023-05-09T12:21:54;2.60;;;2.40;;
8791;SDS011;4432;50.890;4.744;2023-05-09T12:24:22;2.60;;;2.40;;
8791;SDS011;4432;50.890;4.744;2023-05-09T12:26:52;4.13;;;2.87;;
8791;SDS011;4432;50.890;4.744;2023-05-09T12:29:22;2.50;;;2.30;;
8791;SDS011;4432;50.890;4.744;2023-05-09T12:31:49;4.00;;;2.97;;
8791;SDS011;4432;50.890;4.744;2023-05-09T12:34:16;2.40;;;2.20;;
8791;SDS011;4432;50.890;4.744;2023-05-09T12:36:42;3.07;;;2.70;;
8791;SDS011;4432;50.890;4.744;2023-05-09T12:39:15;5.73;;;2.67;;
8791;SDS011;4432;50.890;4.744;2023-05-09T12:41:45;2.37;;;2.17;;
8791;SDS011;4432;50.890;4.744;2023-05-09T12:44:24;2.90;;;2.40;;
8791;SDS011;4432;50.890;4.744;2023-05-09T12:46:58;4.80;;;2.97;;
8791;SDS011;4432;50.890;4.744;2023-05-09T12:49:28;2.67;;;2.47;;
8791;SDS011;4432;50.890;4.744;2023-05-09T12:51:57;4.03;;;2.50;;
8791;SDS011;4432;50.890;4.744;2023-05-09T12:54:25;2.73;;;2.17;;
8791;SDS011;4432;50.890;4.744;2023-05-09T12:56:52;3.07;;;2.50;;
8791;SDS011;4432;50.890;4.744;2023-05-09T12:59:26;3.00;;;2.60;;
8791;SDS011;4432;50.890;4.744;2023-05-09T13:01:58;3.13;;;2.67;;
8791;SDS011;4432;50.890;4.744;2023-05-09T13:04:26;2.23;;;2.03;;
8791;SDS011;4432;50.890;4.744;2023-05-09T13:06:53;1.87;;;1.77;;
8791;SDS011;4432;50.890;4.744;2023-05-09T13:09:23;2.00;;;1.70;;
8791;SDS011;4432;50.890;4.744;2023-05-09T13:11:50;1.83;;;1.63;;
8791;SDS011;4432;50.890;4.744;2023-05-09T13:14:19;2.10;;;1.90;;
8791;SDS011;4432;50.890;4.744;2023-05-09T13:16:47;1.87;;;1.50;;
8791;SDS011;4432;50.890;4.744;2023-05-09T13:19:13;2.80;;;1.40;;
8791;SDS011;4432;50.890;4.744;2023-05-09T13:21:38;1.80;;;1.60;;
8791;SDS011;4432;50.890;4.744;2023-05-09T13:24:04;1.70;;;1.60;;
8791;SDS011;4432;50.890;4.744;2023-05-09T13:26:30;1.07;;;1.07;;
8791;SDS011;4432;50.890;4.744;2023-05-09T13:28:56;1.83;;;1.40;;
8791;SDS011;4432;50.890;4.744;2023-05-09T13:31:22;1.43;;;0.93;;
8791;SDS011;4432;50.890;4.744;2023-05-09T13:33:48;1.07;;;1.07;;
8791;SDS011;4432;50.890;4.744;2023-05-09T13:36:15;1.77;;;0.80;;
8791;SDS011;4432;50.890;4.744;2023-05-09T13:38:41;1.00;;;1.00;;
8791;SDS011;4432;50.890;4.744;2023-05-09T13:41:09;1.23;;;1.13;;
8791;SDS011;4432;50.890;4.744;2023-05-09T13:43:35;3.43;;;1.37;;
8791;SDS011;4432;50.890;4.744;2023-05-09T13:46:02;2.03;;;1.20;;
8791;SDS011;4432;50.890;4.744;2023-05-09T13:48:28;3.17;;;1.10;;
8791;SDS011;4432;50.890;4.744;2023-05-09T13:50:54;1.43;;;1.20;;
8791;SDS011;4432;50.890;4.744;2023-05-09T13:53:21;1.73;;;1.40;;
8791;SDS011;4432;50.890;4.744;2023-05-09T13:55:47;1.67;;;1.13;;
8791;SDS011;4432;50.890;4.744;2023-05-09T13:58:13;1.40;;;1.30;;
8791;SDS011;4432;50.890;4.744;2023-05-09T14:00:39;1.00;;;0.90;;
8791;SDS011;4432;50.890;4.744;2023-05-09T14:03:05;1.00;;;1.00;;
8791;SDS011;4432;50.890;4.744;2023-05-09T14:05:31;1.30;;;1.20;;
8791;SDS011;4432;50.890;4.744;2023-05-09T14:07:57;2.07;;;1.30;;
8791;SDS011;4432;50.890;4.744;2023-05-09T14:10:25;1.33;;;1.20;;
8791;SDS011;4432;50.890;4.744;2023-05-09T14:12:51;1.20;;;1.10;;
8791;SDS011;4432;50.890;4.744;2023-05-09T14:15:18;1.33;;;1.00;;
8791;SDS011;4432;50.890;4.744;2023-05-09T14:17:44;1.17;;;1.10;;
8791;SDS011;4432;50.890;4.744;2023-05-09T14:20:10;1.20;;;1.20;;
8791;SDS011;4432;50.890;4.744;2023-05-09T14:22:37;0.90;;;0.90;;
8791;SDS011;4432;50.890;4.744;2023-05-09T14:25:02;1.00;;;1.00;;
8791;SDS011;4432;50.890;4.744;2023-05-09T14:27:28;1.27;;;1.10;;
8791;SDS011;4432;50.890;4.744;2023-05-09T14:29:54;0.97;;;0.97;;
8791;SDS011;4432;50.890;4.744;2023-05-09T14:32:20;1.10;;;1.10;;
8791;SDS011;4432;50.890;4.744;2023-05-09T14:34:46;1.10;;;1.10;;
8791;SDS011;4432;50.890;4.744;2023-05-09T14:37:13;5.30;;;1.00;;
8791;SDS011;4432;50.890;4.744;2023-05-09T14:39:41;1.40;;;1.00;;
8791;SDS011;4432;50.890;4.744;2023-05-09T14:42:08;1.37;;;1.20;;
8791;SDS011;4432;50.890;4.744;2023-05-09T14:44:38;1.77;;;1.23;;
8791;SDS011;4432;50.890;4.744;2023-05-09T14:47:06;1.10;;;1.10;;
8791;SDS011;4432;50.890;4.744;2023-05-09T14:49:32;0.90;;;0.90;;
8791;SDS011;4432;50.890;4.744;2023-05-09T14:51:58;0.80;;;0.80;;
8791;SDS011;4432;50.890;4.744;2023-05-09T14:54:24;5.77;;;1.23;;
8791;SDS011;4432;50.890;4.744;2023-05-09T14:56:50;0.90;;;0.90;;
8791;SDS011;4432;50.890;4.744;2023-05-09T14:59:16;0.90;;;0.90;;
8791;SDS011;4432;50.890;4.744;2023-05-09T15:01:42;4.70;;;0.73;;
8791;SDS011;4432;50.890;4.744;2023-05-09T15:04:09;2.43;;;0.97;;
8791;SDS011;4432;50.890;4.744;2023-05-09T15:06:36;1.43;;;1.00;;
8791;SDS011;4432;50.890;4.744;2023-05-09T15:09:02;0.80;;;0.80;;
8791;SDS011;4432;50.890;4.744;2023-05-09T15:11:28;4.40;;;1.00;;
8791;SDS011;4432;50.890;4.744;2023-05-09T15:13:54;0.70;;;0.70;;
8791;SDS011;4432;50.890;4.744;2023-05-09T15:16:20;0.87;;;0.83;;
8791;SDS011;4432;50.890;4.744;2023-05-09T15:18:45;5.10;;;1.00;;
8791;SDS011;4432;50.890;4.744;2023-05-09T15:21:11;1.40;;;0.90;;
8791;SDS011;4432;50.890;4.744;2023-05-09T15:23:37;1.00;;;1.00;;
8791;SDS011;4432;50.890;4.744;2023-05-09T15:26:06;0.90;;;0.90;;
8791;SDS011;4432;50.890;4.744;2023-05-09T15:28:38;1.40;;;1.30;;
8791;SDS011;4432;50.890;4.744;2023-05-09T15:31:04;1.13;;;0.90;;
8791;SDS011;4432;50.890;4.744;2023-05-09T15:33:31;1.10;;;1.00;;
8791;SDS011;4432;50.890;4.744;2023-05-09T15:35:57;0.80;;;0.80;;
8791;SDS011;4432;50.890;4.744;2023-05-09T15:38:27;2.63;;;1.17;;
8791;SDS011;4432;50.890;4.744;2023-05-09T15:40:53;1.00;;;1.00;;
8791;SDS011;4432;50.890;4.744;2023-05-09T15:43:19;0.70;;;0.70;;